sensor_id;sensor_type;location;lat;lon;timestamp;pressure;altitude;pressure_sealevel;temperature;humidity
60373;BME280;46216;52.220;5.134;2022-09-09T00:04:35;100915.19;;;16.99;100.00
60373;BME280;46216;52.220;5.134;2022-09-09T00:09:48;100915.31;;;16.97;100.00
60373;BME280;46216;52.220;5.134;2022-09-09T00:12:27;100910.94;;;16.96;100.00
60373;BME280;46216;52.220;5.134;2022-09-09T00:15:07;100912.09;;;16.94;100.00
60373;BME280;46216;52.220;5.134;2022-09-09T00:17:41;100920.88;;;16.96;100.00
60373;BME280;46216;52.220;5.134;2022-09-09T00:20:29;100914.25;;;16.90;100.00
60373;BME280;46216;52.220;5.134;2022-09-09T00:26:14;100910.25;;;16.94;100.00
60373;BME280;46216;52.220;5.134;2022-09-09T00:28:52;100914.94;;;16.92;100.00
60373;BME280;46216;52.220;5.134;2022-09-09T00:31:27;100900.47;;;16.93;100.00
60373;BME280;46216;52.220;5.134;2022-09-09T00:33:53;100911.25;;;16.93;100.00
60373;BME280;46216;52.220;5.134;2022-09-09T00:36:24;100914.41;;;16.89;100.00
60373;BME280;46216;52.220;5.134;2022-09-09T00:38:56;100908.19;;;16.88;100.00
60373;BME280;46216;52.220;5.134;2022-09-09T00:57:59;100910.06;;;16.78;100.00
60373;BME280;46216;52.220;5.134;2022-09-09T01:08:45;100908.84;;;16.63;100.00
60373;BME280;46216;52.220;5.134;2022-09-09T01:11:22;100905.44;;;16.61;100.00
60373;BME280;46216;52.220;5.134;2022-09-09T01:13:54;100910.97;;;16.59;100.00
60373;BME280;46216;52.220;5.134;2022-09-09T01:16:24;100913.97;;;16.56;100.00
60373;BME280;46216;52.220;5.134;2022-09-09T01:18:53;100911.72;;;16.51;100.00
60373;BME280;46216;52.220;5.134;2022-09-09T01:21:45;100914.00;;;16.46;100.00
60373;BME280;46216;52.220;5.134;2022-09-09T01:24:27;100908.63;;;16.46;100.00
60373;BME280;46216;52.220;5.134;2022-09-09T01:26:59;100902.41;;;16.46;100.00
60373;BME280;46216;52.220;5.134;2022-09-09T01:29:25;100891.94;;;16.43;100.00
60373;BME280;46216;52.220;5.134;2022-09-09T01:34:18;100896.91;;;16.38;100.00
60373;BME280;46216;52.220;5.134;2022-09-09T01:36:48;100894.53;;;16.35;100.00
60373;BME280;46216;52.220;5.134;2022-09-09T01:39:16;100899.19;;;16.32;100.00
60373;BME280;46216;52.220;5.134;2022-09-09T01:41:42;100894.94;;;16.30;100.00
60373;BME280;46216;52.220;5.134;2022-09-09T01:44:08;100892.56;;;16.27;100.00
60373;BME280;46216;52.220;5.134;2022-09-09T01:46:34;100898.09;;;16.25;100.00
60373;BME280;46216;52.220;5.134;2022-09-09T01:49:00;100890.47;;;16.21;100.00
60373;BME280;46216;52.220;5.134;2022-09-09T01:51:27;100889.47;;;16.22;100.00
60373;BME280;46216;52.220;5.134;2022-09-09T01:53:52;100885.09;;;16.21;100.00
60373;BME280;46216;52.220;5.134;2022-09-09T01:56:47;100885.38;;;16.18;100.00
60373;BME280;46216;52.220;5.134;2022-09-09T01:59:24;100881.31;;;16.14;100.00
60373;BME280;46216;52.220;5.134;2022-09-09T02:04:39;100887.25;;;16.07;100.00
60373;BME280;46216;52.220;5.134;2022-09-09T02:07:14;100887.25;;;16.07;100.00
60373;BME280;46216;52.220;5.134;2022-09-09T02:09:47;100886.53;;;16.05;100.00
60373;BME280;46216;52.220;5.134;2022-09-09T02:12:19;100886.69;;;16.04;100.00
60373;BME280;46216;52.220;5.134;2022-09-09T02:14:50;100883.47;;;16.00;100.00
60373;BME280;46216;52.220;5.134;2022-09-09T02:17:24;100888.00;;;16.00;100.00
60373;BME280;46216;52.220;5.134;2022-09-09T02:20:03;100880.91;;;15.99;100.00
60373;BME280;46216;52.220;5.134;2022-09-09T02:22:31;100871.00;;;15.99;100.00
60373;BME280;46216;52.220;5.134;2022-09-09T02:24:59;100874.56;;;16.00;100.00
60373;BME280;46216;52.220;5.134;2022-09-09T02:27:25;100875.41;;;16.00;100.00
60373;BME280;46216;52.220;5.134;2022-09-09T02:29:51;100880.91;;;15.99;100.00
60373;BME280;46216;52.220;5.134;2022-09-09T02:32:21;100874.84;;;15.97;100.00
60373;BME280;46216;52.220;5.134;2022-09-09T02:34:51;100872.28;;;15.95;100.00
60373;BME280;46216;52.220;5.134;2022-09-09T02:37:20;100880.34;;;15.95;100.00
60373;BME280;46216;52.220;5.134;2022-09-09T02:39:47;100882.19;;;15.95;100.00
60373;BME280;46216;52.220;5.134;2022-09-09T02:42:12;100878.94;;;15.91;100.00
60373;BME280;46216;52.220;5.134;2022-09-09T02:44:40;100880.91;;;15.89;100.00
60373;BME280;46216;52.220;5.134;2022-09-09T02:47:34;100870.78;;;15.83;100.00
60373;BME280;46216;52.220;5.134;2022-09-09T02:53:16;100870.34;;;15.78;100.00
60373;BME280;46216;52.220;5.134;2022-09-09T02:55:47;100868.50;;;15.78;100.00
60373;BME280;46216;52.220;5.134;2022-09-09T02:58:15;100875.72;;;15.78;100.00
60373;BME280;46216;52.220;5.134;2022-09-09T03:00:49;100866.25;;;15.74;100.00
60373;BME280;46216;52.220;5.134;2022-09-09T03:03:15;100865.53;;;15.72;100.00
60373;BME280;46216;52.220;5.134;2022-09-09T03:05:45;100864.03;;;15.69;100.00
60373;BME280;46216;52.220;5.134;2022-09-09T03:08:11;100865.53;;;15.72;100.00
60373;BME280;46216;52.220;5.134;2022-09-09T03:10:38;100860.16;;;15.72;100.00
60373;BME280;46216;52.220;5.134;2022-09-09T03:13:04;100861.34;;;15.69;100.00
60373;BME280;46216;52.220;5.134;2022-09-09T03:15:32;100860.47;;;15.69;100.00
60373;BME280;46216;52.220;5.134;2022-09-09T03:17:58;100854.25;;;15.68;100.00
60373;BME280;46216;52.220;5.134;2022-09-09T03:20:28;100856.25;;;15.66;100.00
60373;BME280;46216;52.220;5.134;2022-09-09T03:22:55;100842.81;;;15.66;100.00
60373;BME280;46216;52.220;5.134;2022-09-09T03:25:21;100846.59;;;15.64;100.00
60373;BME280;46216;52.220;5.134;2022-09-09T03:27:52;100850.28;;;15.63;100.00
60373;BME280;46216;52.220;5.134;2022-09-09T03:30:24;100857.63;;;15.60;100.00
60373;BME280;46216;52.220;5.134;2022-09-09T03:32:50;100862.72;;;15.64;100.00
60373;BME280;46216;52.220;5.134;2022-09-09T03:35:16;100863.84;;;15.61;100.00
60373;BME280;46216;52.220;5.134;2022-09-09T03:37:42;100858.47;;;15.61;100.00
60373;BME280;46216;52.220;5.134;2022-09-09T03:40:08;100862.28;;;15.58;100.00
60373;BME280;46216;52.220;5.134;2022-09-09T03:42:35;100855.38;;;15.56;100.00
60373;BME280;46216;52.220;5.134;2022-09-09T03:45:03;100859.88;;;15.55;100.00
60373;BME280;46216;52.220;5.134;2022-09-09T03:47:28;100852.25;;;15.51;100.00
60373;BME280;46216;52.220;5.134;2022-09-09T03:49:54;100860.47;;;15.49;100.00
60373;BME280;46216;52.220;5.134;2022-09-09T03:52:19;100862.44;;;15.47;100.00
60373;BME280;46216;52.220;5.134;2022-09-09T03:54:46;100851.84;;;15.46;100.00
60373;BME280;46216;52.220;5.134;2022-09-09T03:57:13;100864.28;;;15.47;100.00
60373;BME280;46216;52.220;5.134;2022-09-09T03:59:42;100853.66;;;15.45;100.00
60373;BME280;46216;52.220;5.134;2022-09-09T04:02:07;100868.09;;;15.44;100.00
60373;BME280;46216;52.220;5.134;2022-09-09T04:04:32;100863.72;;;15.43;100.00
60373;BME280;46216;52.220;5.134;2022-09-09T04:06:58;100861.03;;;15.43;100.00
60373;BME280;46216;52.220;5.134;2022-09-09T04:09:23;100863.00;;;15.41;100.00
60373;BME280;46216;52.220;5.134;2022-09-09T04:11:48;100855.09;;;15.40;100.00
60373;BME280;46216;52.220;5.134;2022-09-09T04:14:14;100861.44;;;15.38;100.00
60373;BME280;46216;52.220;5.134;2022-09-09T04:16:40;100852.69;;;15.36;100.00
60373;BME280;46216;52.220;5.134;2022-09-09T04:19:10;100849.03;;;15.37;100.00
60373;BME280;46216;52.220;5.134;2022-09-09T04:21:38;100848.19;;;15.37;100.00
60373;BME280;46216;52.220;5.134;2022-09-09T04:24:05;100850.16;;;15.35;100.00
60373;BME280;46216;52.220;5.134;2022-09-09T04:26:31;100842.09;;;15.35;100.00
60373;BME280;46216;52.220;5.134;2022-09-09T04:28:56;100838.72;;;15.33;100.00
60373;BME280;46216;52.220;5.134;2022-09-09T04:31:22;100849.56;;;15.31;100.00
60373;BME280;46216;52.220;5.134;2022-09-09T04:33:52;100844.38;;;15.30;100.00
60373;BME280;46216;52.220;5.134;2022-09-09T04:36:18;100838.84;;;15.31;100.00
60373;BME280;46216;52.220;5.134;2022-09-09T04:38:45;100838.72;;;15.33;100.00
60373;BME280;46216;52.220;5.134;2022-09-09T04:41:10;100832.78;;;15.29;100.00
60373;BME280;46216;52.220;5.134;2022-09-09T04:43:37;100828.53;;;15.27;100.00
60373;BME280;46216;52.220;5.134;2022-09-09T04:46:02;100824.44;;;15.23;100.00
60373;BME280;46216;52.220;5.134;2022-09-09T04:48:28;100826.84;;;15.26;100.00
60373;BME280;46216;52.220;5.134;2022-09-09T04:51:04;100827.13;;;15.23;100.00
60373;BME280;46216;52.220;5.134;2022-09-09T04:53:31;100825.13;;;15.25;100.00
60373;BME280;46216;52.220;5.134;2022-09-09T04:56:14;100823.59;;;15.22;100.00
60373;BME280;46216;52.220;5.134;2022-09-09T04:58:40;100820.47;;;15.27;100.00
60373;BME280;46216;52.220;5.134;2022-09-09T05:01:20;100819.75;;;15.25;100.00
60373;BME280;46216;52.220;5.134;2022-09-09T05:03:47;100827.41;;;15.29;100.00
60373;BME280;46216;52.220;5.134;2022-09-09T05:06:14;100828.53;;;15.27;100.00
60373;BME280;46216;52.220;5.134;2022-09-09T05:08:42;100831.06;;;15.28;100.00
60373;BME280;46216;52.220;5.134;2022-09-09T05:13:43;100824.00;;;15.27;100.00
60373;BME280;46216;52.220;5.134;2022-09-09T05:16:09;100818.78;;;15.26;100.00
60373;BME280;46216;52.220;5.134;2022-09-09T05:18:37;100818.78;;;15.26;100.00
60373;BME280;46216;52.220;5.134;2022-09-09T05:21:02;100812.44;;;15.27;100.00
60373;BME280;46216;52.220;5.134;2022-09-09T05:23:27;100809.91;;;15.25;100.00
60373;BME280;46216;52.220;5.134;2022-09-09T05:25:56;100819.63;;;15.26;100.00
60373;BME280;46216;52.220;5.134;2022-09-09T05:28:23;100826.84;;;15.26;100.00
60373;BME280;46216;52.220;5.134;2022-09-09T05:31:03;100822.03;;;15.20;100.00
60373;BME280;46216;52.220;5.134;2022-09-09T05:33:31;100832.50;;;15.23;100.00
60373;BME280;46216;52.220;5.134;2022-09-09T05:36:02;100828.81;;;15.24;100.00
60373;BME280;46216;52.220;5.134;2022-09-09T05:38:29;100822.31;;;15.26;100.00
60373;BME280;46216;52.220;5.134;2022-09-09T05:40:55;100816.97;;;15.26;100.00
60373;BME280;46216;52.220;5.134;2022-09-09T05:43:22;100809.03;;;15.25;100.00
60373;BME280;46216;52.220;5.134;2022-09-09T05:45:48;100815.84;;;15.29;100.00
60373;BME280;46216;52.220;5.134;2022-09-09T05:48:16;100806.06;;;15.28;100.00
60373;BME280;46216;52.220;5.134;2022-09-09T05:50:42;100819.19;;;15.31;100.00
60373;BME280;46216;52.220;5.134;2022-09-09T05:53:08;100823.59;;;15.32;100.00
60373;BME280;46216;52.220;5.134;2022-09-09T05:55:35;100825.97;;;15.35;100.00
60373;BME280;46216;52.220;5.134;2022-09-09T05:58:00;100823.16;;;15.36;100.00
60373;BME280;46216;52.220;5.134;2022-09-09T06:00:26;100822.03;;;15.39;100.00
60373;BME280;46216;52.220;5.134;2022-09-09T06:02:52;100821.03;;;15.40;100.00
60373;BME280;46216;52.220;5.134;2022-09-09T06:05:18;100821.44;;;15.45;100.00
60373;BME280;46216;52.220;5.134;2022-09-09T06:07:43;100823.16;;;15.46;100.00
60373;BME280;46216;52.220;5.134;2022-09-09T06:10:10;100820.31;;;15.48;100.00
60373;BME280;46216;52.220;5.134;2022-09-09T06:12:36;100822.88;;;15.49;100.00
60373;BME280;46216;52.220;5.134;2022-09-09T06:15:01;100814.53;;;15.52;100.00
60373;BME280;46216;52.220;5.134;2022-09-09T06:17:27;100813.53;;;15.53;100.00
60373;BME280;46216;52.220;5.134;2022-09-09T06:19:52;100823.28;;;15.54;100.00
60373;BME280;46216;52.220;5.134;2022-09-09T06:22:17;100827.50;;;15.57;100.00
60373;BME280;46216;52.220;5.134;2022-09-09T06:24:43;100823.28;;;15.54;100.00
60373;BME280;46216;52.220;5.134;2022-09-09T06:27:09;100826.22;;;15.61;100.00
60373;BME280;46216;52.220;5.134;2022-09-09T06:29:35;100825.78;;;15.66;100.00
60373;BME280;46216;52.220;5.134;2022-09-09T06:32:02;100820.03;;;15.70;100.00
60373;BME280;46216;52.220;5.134;2022-09-09T06:34:27;100813.19;;;15.76;100.00
60373;BME280;46216;52.220;5.134;2022-09-09T06:36:53;100813.91;;;15.78;100.00
60373;BME280;46216;52.220;5.134;2022-09-09T06:39:19;100813.63;;;15.81;100.00
60373;BME280;46216;52.220;5.134;2022-09-09T06:41:44;100813.72;;;15.89;100.00
60373;BME280;46216;52.220;5.134;2022-09-09T06:44:10;100813.44;;;15.92;100.00
60373;BME280;46216;52.220;5.134;2022-09-09T06:46:37;100810.03;;;16.00;100.00
60373;BME280;46216;52.220;5.134;2022-09-09T06:49:03;100815.66;;;16.06;100.00
60373;BME280;46216;52.220;5.134;2022-09-09T06:51:30;100808.00;;;16.12;100.00
60373;BME280;46216;52.220;5.134;2022-09-09T06:53:58;100806.88;;;16.14;100.00
60373;BME280;46216;52.220;5.134;2022-09-09T06:56:25;100812.78;;;16.18;100.00
60373;BME280;46216;52.220;5.134;2022-09-09T06:58:54;100818.72;;;16.21;100.00
60373;BME280;46216;52.220;5.134;2022-09-09T07:01:25;100815.88;;;16.23;100.00
60373;BME280;46216;52.220;5.134;2022-09-09T07:03:52;100826.03;;;16.29;100.00
60373;BME280;46216;52.220;5.134;2022-09-09T07:06:23;100820.34;;;16.32;100.00
60373;BME280;46216;52.220;5.134;2022-09-09T07:08:53;100826.53;;;16.42;100.00
60373;BME280;46216;52.220;5.134;2022-09-09T07:11:20;100830.31;;;16.49;100.00
60373;BME280;46216;52.220;5.134;2022-09-09T07:13:46;100830.25;;;16.59;100.00
60373;BME280;46216;52.220;5.134;2022-09-09T07:16:16;100826.44;;;16.62;100.00
60373;BME280;46216;52.220;5.134;2022-09-09T07:18:42;100823.13;;;16.68;100.00
60373;BME280;46216;52.220;5.134;2022-09-09T07:21:10;100808.78;;;16.77;100.00
60373;BME280;46216;52.220;5.134;2022-09-09T07:23:37;100814.09;;;16.87;100.00
60373;BME280;46216;52.220;5.134;2022-09-09T07:26:08;100810.94;;;16.91;100.00
60373;BME280;46216;52.220;5.134;2022-09-09T07:28:33;100820.97;;;16.99;100.00
60373;BME280;46216;52.220;5.134;2022-09-09T07:31:00;100824.19;;;17.02;100.00
60373;BME280;46216;52.220;5.134;2022-09-09T07:33:28;100812.28;;;17.05;100.00
60373;BME280;46216;52.220;5.134;2022-09-09T07:36:04;100814.09;;;17.05;100.00
60373;BME280;46216;52.220;5.134;2022-09-09T07:38:31;100817.00;;;17.11;100.00
60373;BME280;46216;52.220;5.134;2022-09-09T07:41:06;100820.72;;;17.10;100.00
60373;BME280;46216;52.220;5.134;2022-09-09T07:43:34;100821.13;;;17.15;100.00
60373;BME280;46216;52.220;5.134;2022-09-09T07:46:00;100811.84;;;17.18;100.00
60373;BME280;46216;52.220;5.134;2022-09-09T07:48:29;100813.22;;;17.22;100.00
60373;BME280;46216;52.220;5.134;2022-09-09T07:51:06;100814.25;;;17.21;100.00
60373;BME280;46216;52.220;5.134;2022-09-09T07:53:32;100802.84;;;17.27;100.00
60373;BME280;46216;52.220;5.134;2022-09-09T07:56:05;100800.69;;;17.31;100.00
60373;BME280;46216;52.220;5.134;2022-09-09T07:58:30;100811.00;;;17.35;100.00
60373;BME280;46216;52.220;5.134;2022-09-09T08:00:56;100804.84;;;17.43;100.00
60373;BME280;46216;52.220;5.134;2022-09-09T08:03:22;100800.28;;;17.43;100.00
60373;BME280;46216;52.220;5.134;2022-09-09T08:05:48;100808.22;;;17.45;100.00
60373;BME280;46216;52.220;5.134;2022-09-09T08:08:14;100796.59;;;17.44;100.00
60373;BME280;46216;52.220;5.134;2022-09-09T08:10:40;100803.66;;;17.45;100.00
60373;BME280;46216;52.220;5.134;2022-09-09T08:13:05;100806.22;;;17.47;100.00
60373;BME280;46216;52.220;5.134;2022-09-09T08:15:31;100805.38;;;17.46;100.00
60373;BME280;46216;52.220;5.134;2022-09-09T08:17:57;100801.66;;;17.47;100.00
60373;BME280;46216;52.220;5.134;2022-09-09T08:20:22;100800.66;;;17.48;100.00
60373;BME280;46216;52.220;5.134;2022-09-09T08:22:48;100804.72;;;17.53;100.00
60373;BME280;46216;52.220;5.134;2022-09-09T08:25:15;100805.09;;;17.58;100.00
60373;BME280;46216;52.220;5.134;2022-09-09T08:27:40;100797.56;;;17.61;100.00
60373;BME280;46216;52.220;5.134;2022-09-09T08:30:06;100805.16;;;17.66;100.00
60373;BME280;46216;52.220;5.134;2022-09-09T08:32:31;100803.69;;;17.71;100.00
60373;BME280;46216;52.220;5.134;2022-09-09T08:34:57;100804.19;;;17.75;100.00
60373;BME280;46216;52.220;5.134;2022-09-09T08:37:22;100805.91;;;17.76;100.00
60373;BME280;46216;52.220;5.134;2022-09-09T08:39:48;100806.63;;;17.78;100.00
60373;BME280;46216;52.220;5.134;2022-09-09T08:42:34;100810.16;;;17.79;100.00
60373;BME280;46216;52.220;5.134;2022-09-09T08:45:04;100811.53;;;17.83;100.00
60373;BME280;46216;52.220;5.134;2022-09-09T08:50:29;100820.84;;;17.88;100.00
60373;BME280;46216;52.220;5.134;2022-09-09T08:58:09;100821.00;;;17.87;100.00
60373;BME280;46216;52.220;5.134;2022-09-09T09:04:00;100819.25;;;17.78;100.00
60373;BME280;46216;52.220;5.134;2022-09-09T09:11:58;100817.13;;;17.89;100.00
60373;BME280;46216;52.220;5.134;2022-09-09T09:14:28;100818.50;;;17.93;100.00
60373;BME280;46216;52.220;5.134;2022-09-09T09:19:32;100821.25;;;18.02;100.00
60373;BME280;46216;52.220;5.134;2022-09-09T09:27:28;100829.03;;;18.05;100.00
60373;BME280;46216;52.220;5.134;2022-09-09T09:29:56;100828.00;;;18.06;100.00
60373;BME280;46216;52.220;5.134;2022-09-09T09:32:24;100822.59;;;18.06;100.00
60373;BME280;46216;52.220;5.134;2022-09-09T09:34:55;100824.63;;;18.04;100.00
60373;BME280;46216;52.220;5.134;2022-09-09T09:37:32;100823.25;;;18.00;100.00
60373;BME280;46216;52.220;5.134;2022-09-09T09:40:20;100822.50;;;17.89;100.00
60373;BME280;46216;52.220;5.134;2022-09-09T09:42:52;100824.09;;;18.00;100.00
60373;BME280;46216;52.220;5.134;2022-09-09T09:45:35;100832.34;;;17.99;100.00
60373;BME280;46216;52.220;5.134;2022-09-09T09:48:09;100823.78;;;18.03;100.00
60373;BME280;46216;52.220;5.134;2022-09-09T09:50:34;100830.88;;;18.04;100.00
60373;BME280;46216;52.220;5.134;2022-09-09T09:53:02;100830.88;;;18.04;100.00
60373;BME280;46216;52.220;5.134;2022-09-09T09:55:30;100831.72;;;18.05;100.00
60373;BME280;46216;52.220;5.134;2022-09-09T09:58:04;100830.56;;;18.07;100.00
60373;BME280;46216;52.220;5.134;2022-09-09T10:00:31;100826.00;;;18.08;100.00
60373;BME280;46216;52.220;5.134;2022-09-09T10:02:59;100825.69;;;18.11;100.00
60373;BME280;46216;52.220;5.134;2022-09-09T10:05:30;100827.38;;;18.12;100.00
60373;BME280;46216;52.220;5.134;2022-09-09T10:08:13;100831.41;;;18.08;100.00
60373;BME280;46216;52.220;5.134;2022-09-09T10:13:38;100830.22;;;18.10;100.00
60373;BME280;46216;52.220;5.134;2022-09-09T10:16:38;100826.22;;;18.14;100.00
60373;BME280;46216;52.220;5.134;2022-09-09T10:30:21;100833.72;;;18.37;100.00
60373;BME280;46216;52.220;5.134;2022-09-09T10:35:47;100842.94;;;18.26;100.00
60373;BME280;46216;52.220;5.134;2022-09-09T10:38:20;100841.59;;;18.30;100.00
60373;BME280;46216;52.220;5.134;2022-09-09T10:41:01;100847.38;;;18.35;100.00
60373;BME280;46216;52.220;5.134;2022-09-09T10:46:10;100841.75;;;18.63;100.00
60373;BME280;46216;52.220;5.134;2022-09-09T10:57:33;100838.28;;;18.87;100.00
60373;BME280;46216;52.220;5.134;2022-09-09T11:00:10;100838.66;;;18.92;100.00
60373;BME280;46216;52.220;5.134;2022-09-09T11:02:41;100827.84;;;18.92;100.00
60373;BME280;46216;52.220;5.134;2022-09-09T11:05:17;100829.19;;;18.96;100.00
60373;BME280;46216;52.220;5.134;2022-09-09T11:07:59;100830.72;;;19.07;100.00
60373;BME280;46216;52.220;5.134;2022-09-09T11:10:39;100820.25;;;19.12;100.00
60373;BME280;46216;52.220;5.134;2022-09-09T11:13:21;100815.22;;;19.09;100.00
60373;BME280;46216;52.220;5.134;2022-09-09T11:18:38;100826.03;;;19.09;100.00
60373;BME280;46216;52.220;5.134;2022-09-09T11:21:07;100820.75;;;19.07;100.00
60373;BME280;46216;52.220;5.134;2022-09-09T11:23:40;100822.28;;;19.10;100.00
60373;BME280;46216;52.220;5.134;2022-09-09T11:26:12;100825.47;;;19.05;100.00
60373;BME280;46216;52.220;5.134;2022-09-09T11:28:54;100815.19;;;19.01;100.00
60373;BME280;46216;52.220;5.134;2022-09-09T11:31:44;100819.06;;;18.98;100.00
60373;BME280;46216;52.220;5.134;2022-09-09T11:37:05;100810.47;;;19.11;100.00
60373;BME280;46216;52.220;5.134;2022-09-09T11:42:16;100810.50;;;19.19;100.00
60373;BME280;46216;52.220;5.134;2022-09-09T11:44:43;100801.84;;;19.15;100.00
60373;BME280;46216;52.220;5.134;2022-09-09T11:47:26;100795.78;;;19.13;100.00
60373;BME280;46216;52.220;5.134;2022-09-09T11:50:06;100811.16;;;19.13;100.00
60373;BME280;46216;52.220;5.134;2022-09-09T11:52:40;100804.03;;;19.04;100.00
60373;BME280;46216;52.220;5.134;2022-09-09T11:55:30;100807.56;;;18.88;100.00
60373;BME280;46216;52.220;5.134;2022-09-09T12:00:43;100818.69;;;18.77;100.00
60373;BME280;46216;52.220;5.134;2022-09-09T12:03:41;100821.13;;;18.54;100.00
60373;BME280;46216;52.220;5.134;2022-09-09T12:08:56;100829.53;;;18.42;100.00
60373;BME280;46216;52.220;5.134;2022-09-09T12:11:28;100831.06;;;18.45;100.00
60373;BME280;46216;52.220;5.134;2022-09-09T12:13:55;100829.53;;;18.42;100.00
60373;BME280;46216;52.220;5.134;2022-09-09T12:16:35;100830.53;;;18.41;100.00
60373;BME280;46216;52.220;5.134;2022-09-09T12:24:37;100826.44;;;18.37;100.00
60373;BME280;46216;52.220;5.134;2022-09-09T12:27:22;100833.25;;;18.50;100.00
60373;BME280;46216;52.220;5.134;2022-09-09T12:30:03;100819.31;;;18.62;100.00
60373;BME280;46216;52.220;5.134;2022-09-09T12:32:29;100824.44;;;18.82;100.00
60373;BME280;46216;52.220;5.134;2022-09-09T12:34:59;100824.97;;;18.94;100.00
60373;BME280;46216;52.220;5.134;2022-09-09T12:37:45;100819.94;;;18.99;100.00
60373;BME280;46216;52.220;5.134;2022-09-09T12:40:23;100826.00;;;18.93;100.00
60373;BME280;46216;52.220;5.134;2022-09-09T12:42:49;100819.38;;;18.95;100.00
60373;BME280;46216;52.220;5.134;2022-09-09T12:45:20;100825.28;;;18.90;100.00
60373;BME280;46216;52.220;5.134;2022-09-09T12:47:56;100814.31;;;18.84;100.00
60373;BME280;46216;52.220;5.134;2022-09-09T12:50:27;100815.16;;;18.76;100.00
60373;BME280;46216;52.220;5.134;2022-09-09T12:52:59;100811.59;;;18.76;100.00
60373;BME280;46216;52.220;5.134;2022-09-09T12:55:32;100812.75;;;18.65;100.00
60373;BME280;46216;52.220;5.134;2022-09-09T12:58:04;100810.38;;;18.70;100.00
60373;BME280;46216;52.220;5.134;2022-09-09T13:00:32;100807.38;;;18.73;100.00
60373;BME280;46216;52.220;5.134;2022-09-09T13:03:00;100813.47;;;18.75;100.00
60373;BME280;46216;52.220;5.134;2022-09-09T13:05:37;100804.34;;;18.76;100.00
60373;BME280;46216;52.220;5.134;2022-09-09T13:08:08;100807.06;;;18.76;100.00
60373;BME280;46216;52.220;5.134;2022-09-09T13:10:49;100804.69;;;18.73;100.00
60373;BME280;46216;52.220;5.134;2022-09-09T13:13:25;100804.69;;;18.73;100.00
60373;BME280;46216;52.220;5.134;2022-09-09T13:15:54;100801.78;;;18.75;100.00
60373;BME280;46216;52.220;5.134;2022-09-09T13:18:23;100803.84;;;18.73;100.00
60373;BME280;46216;52.220;5.134;2022-09-09T13:20:49;100804.69;;;18.73;100.00
60373;BME280;46216;52.220;5.134;2022-09-09T13:23:16;100806.66;;;18.71;100.00
60373;BME280;46216;52.220;5.134;2022-09-09T13:25:57;100799.56;;;18.70;100.00
60373;BME280;46216;52.220;5.134;2022-09-09T13:28:26;100804.69;;;18.73;100.00
60373;BME280;46216;52.220;5.134;2022-09-09T13:31:05;100803.00;;;18.72;100.00
60373;BME280;46216;52.220;5.134;2022-09-09T13:33:44;100804.03;;;18.79;100.00
60373;BME280;46216;52.220;5.134;2022-09-09T13:36:10;100802.31;;;18.78;100.00
60373;BME280;46216;52.220;5.134;2022-09-09T13:39:00;100806.88;;;18.78;100.00
60373;BME280;46216;52.220;5.134;2022-09-09T13:41:42;100798.13;;;18.76;100.00
60373;BME280;46216;52.220;5.134;2022-09-09T13:44:24;100801.97;;;18.81;100.00
60373;BME280;46216;52.220;5.134;2022-09-09T13:49:29;100797.59;;;18.88;100.00
60373;BME280;46216;52.220;5.134;2022-09-09T13:52:09;100798.63;;;18.87;100.00
60373;BME280;46216;52.220;5.134;2022-09-09T13:54:35;100796.28;;;18.93;100.00
60373;BME280;46216;52.220;5.134;2022-09-09T13:57:01;100804.38;;;18.93;100.00
60373;BME280;46216;52.220;5.134;2022-09-09T13:59:27;100800.34;;;18.97;100.00
60373;BME280;46216;52.220;5.134;2022-09-09T14:01:52;100800.00;;;19.00;100.00
60373;BME280;46216;52.220;5.134;2022-09-09T14:04:19;100802.34;;;18.95;100.00
60373;BME280;46216;52.220;5.134;2022-09-09T14:06:47;100801.16;;;18.97;100.00
60373;BME280;46216;52.220;5.134;2022-09-09T14:09:15;100799.63;;;18.95;100.00
60373;BME280;46216;52.220;5.134;2022-09-09T14:11:42;100805.22;;;18.93;100.00
60373;BME280;46216;52.220;5.134;2022-09-09T14:14:07;100801.00;;;18.90;100.00
60373;BME280;46216;52.220;5.134;2022-09-09T14:16:34;100807.56;;;18.88;100.00
60373;BME280;46216;52.220;5.134;2022-09-09T14:18:59;100806.03;;;18.77;100.00
60373;BME280;46216;52.220;5.134;2022-09-09T14:21:25;100806.34;;;18.74;100.00
60373;BME280;46216;52.220;5.134;2022-09-09T14:23:51;100809.75;;;18.76;100.00
60373;BME280;46216;52.220;5.134;2022-09-09T14:26:18;100808.41;;;18.72;100.00
60373;BME280;46216;52.220;5.134;2022-09-09T14:28:45;100803.00;;;18.72;100.00
60373;BME280;46216;52.220;5.134;2022-09-09T14:31:11;100803.28;;;18.69;100.00
60373;BME280;46216;52.220;5.134;2022-09-09T14:33:38;100797.91;;;18.69;100.00
60373;BME280;46216;52.220;5.134;2022-09-09T14:36:04;100801.78;;;18.75;100.00
60373;BME280;46216;52.220;5.134;2022-09-09T14:38:31;100792.06;;;18.82;100.00
60373;BME280;46216;52.220;5.134;2022-09-09T14:40:58;100801.69;;;18.93;100.00
60373;BME280;46216;52.220;5.134;2022-09-09T14:43:24;100801.00;;;19.07;100.00
60373;BME280;46216;52.220;5.134;2022-09-09T14:45:49;100795.59;;;19.15;100.00
60373;BME280;46216;52.220;5.134;2022-09-09T14:48:16;100798.13;;;19.25;100.00
60373;BME280;46216;52.220;5.134;2022-09-09T14:50:41;100795.94;;;19.28;100.00
60373;BME280;46216;52.220;5.134;2022-09-09T14:53:07;100788.19;;;19.33;100.00
60373;BME280;46216;52.220;5.134;2022-09-09T14:55:34;100791.91;;;19.41;100.00